createdAt,value
2018-11-22T00:00:56.180Z,1.52
2018-11-22T00:01:56.161Z,1.51
2018-11-22T00:02:56.180Z,1.50
2018-11-22T00:03:56.147Z,1.57
2018-11-22T00:04:56.156Z,1.58
2018-11-22T00:05:56.161Z,1.58
2018-11-22T00:06:56.122Z,1.68
2018-11-22T00:07:56.121Z,1.65
2018-11-22T00:08:56.111Z,1.55
2018-11-22T00:09:56.096Z,1.55
2018-11-22T00:10:56.110Z,1.65
2018-11-22T00:11:56.080Z,1.68
2018-11-22T00:12:56.071Z,1.57
2018-11-22T00:13:56.062Z,1.60
2018-11-22T00:14:56.067Z,1.68
2018-11-22T00:15:56.047Z,1.54
2018-11-22T00:16:56.042Z,1.54
2018-11-22T00:17:56.043Z,1.57
2018-11-22T00:18:56.022Z,1.55
2018-11-22T00:19:56.014Z,1.69
2018-11-22T00:20:56.006Z,1.68
2018-11-22T00:21:56.019Z,1.64
2018-11-22T00:22:56.002Z,1.58
2018-11-22T00:23:55.987Z,1.58
2018-11-22T00:24:55.979Z,1.50
2018-11-22T00:25:56.000Z,1.46
2018-11-22T00:26:55.956Z,1.52
2018-11-22T00:27:55.945Z,1.42
2018-11-22T00:28:55.948Z,1.43
2018-11-22T00:29:55.933Z,1.44
2018-11-22T00:30:55.923Z,1.44
2018-11-22T00:31:55.913Z,1.51
2018-11-22T00:32:55.908Z,1.55
2018-11-22T00:33:55.898Z,1.55
2018-11-22T00:34:57.507Z,1.52
2018-11-22T00:35:55.880Z,1.55
2018-11-22T00:36:55.874Z,1.55
2018-11-22T00:37:55.867Z,1.61
2018-11-22T00:38:55.856Z,1.65
2018-11-22T00:39:55.847Z,1.54
2018-11-22T00:40:55.836Z,1.51
2018-11-22T00:41:55.859Z,1.60
2018-11-22T00:42:55.854Z,1.55
2018-11-22T00:43:55.821Z,1.54
2018-11-22T00:44:55.808Z,1.58
2018-11-22T00:45:55.803Z,1.55
2018-11-22T00:46:55.789Z,1.60
2018-11-22T00:47:55.780Z,1.58
2018-11-22T00:48:55.781Z,1.55
2018-11-22T00:49:55.775Z,1.58
2018-11-22T00:50:55.823Z,1.58
2018-11-22T00:51:55.748Z,1.60
2018-11-22T00:52:55.737Z,1.58
2018-11-22T00:53:55.730Z,1.58
2018-11-22T00:54:55.751Z,1.57
2018-11-22T00:55:55.720Z,1.62
2018-11-22T00:56:55.704Z,1.54
2018-11-22T00:57:55.699Z,1.55
2018-11-22T00:58:55.696Z,1.64
2018-11-22T00:59:55.679Z,1.64
2018-11-22T01:00:55.670Z,1.65
2018-11-22T01:01:55.667Z,1.72
2018-11-22T01:02:55.658Z,1.65
2018-11-22T01:03:55.653Z,1.65
2018-11-22T01:04:55.637Z,1.71
2018-11-22T01:05:55.639Z,1.69
2018-11-22T01:06:55.623Z,1.68
2018-11-22T01:07:55.616Z,1.71
2018-11-22T01:08:55.615Z,1.61
2018-11-22T01:09:55.613Z,1.72
2018-11-22T01:10:55.590Z,1.71
2018-11-22T01:11:55.582Z,1.65
2018-11-22T01:12:55.576Z,1.71
2018-11-22T01:13:55.569Z,1.68
2018-11-22T01:14:55.586Z,1.55
2018-11-22T01:15:55.591Z,1.62
2018-11-22T01:16:55.540Z,1.52
2018-11-22T01:17:55.542Z,1.55
2018-11-22T01:18:55.531Z,1.55
2018-11-22T01:19:55.550Z,1.54
2018-11-22T01:20:55.514Z,1.52
2018-11-22T01:21:55.505Z,1.58
2018-11-22T01:22:55.492Z,1.60
2018-11-22T01:23:55.513Z,1.62
2018-11-22T01:24:55.474Z,1.58
2018-11-22T01:25:55.485Z,1.61
2018-11-22T01:26:55.482Z,1.61
2018-11-22T01:27:55.454Z,1.60
2018-11-22T01:28:55.444Z,1.58
2018-11-22T01:29:55.436Z,1.52
2018-11-22T01:30:55.430Z,1.46
2018-11-22T01:31:55.415Z,1.43
2018-11-22T01:32:55.410Z,1.46
2018-11-22T01:33:55.434Z,1.44
2018-11-22T01:34:55.427Z,1.43
2018-11-22T01:35:55.388Z,1.51
2018-11-22T01:36:55.383Z,1.55
2018-11-22T01:37:55.366Z,1.55
2018-11-22T01:38:55.383Z,1.54
2018-11-22T01:39:55.351Z,1.54
2018-11-22T01:40:55.369Z,1.55
2018-11-22T01:41:55.354Z,1.51
2018-11-22T01:42:55.326Z,1.51
2018-11-22T01:43:55.327Z,1.43
2018-11-22T01:44:55.307Z,1.43
2018-11-22T01:45:55.303Z,1.46
2018-11-22T01:46:55.296Z,1.55
2018-11-22T01:47:55.286Z,1.43
2018-11-22T01:48:55.275Z,1.47
2018-11-22T01:49:55.273Z,1.44
2018-11-22T01:50:55.303Z,1.46
2018-11-22T01:51:55.254Z,1.46
2018-11-22T01:52:55.284Z,1.46
2018-11-22T01:53:55.232Z,1.44
2018-11-22T01:54:55.222Z,1.47
2018-11-22T01:55:55.244Z,1.50
2018-11-22T01:56:55.231Z,1.37
2018-11-22T01:57:55.256Z,1.46
2018-11-22T01:58:55.197Z,1.42
2018-11-22T01:59:55.185Z,1.37
2018-11-22T02:01:03.242Z,1.37
2018-11-22T02:01:55.174Z,1.43
2018-11-22T02:02:55.159Z,1.36
2018-11-22T02:03:55.151Z,1.39
2018-11-22T02:04:55.139Z,1.37
2018-11-22T02:05:55.130Z,1.42
2018-11-22T02:06:55.125Z,1.42
2018-11-22T02:07:55.115Z,1.51
2018-11-22T02:08:55.106Z,1.44
2018-11-22T02:09:55.103Z,1.44
2018-11-22T02:10:55.090Z,1.52
2018-11-22T02:11:55.079Z,1.47
2018-11-22T02:12:55.111Z,1.46
2018-11-22T02:13:55.082Z,1.50
2018-11-22T02:14:55.054Z,1.51
2018-11-22T02:15:55.049Z,1.40
2018-11-22T02:16:55.038Z,1.52
2018-11-22T02:17:55.036Z,1.46
2018-11-22T02:18:55.021Z,1.57
2018-11-22T02:19:55.027Z,1.50
2018-11-22T02:20:55.010Z,1.51
2018-11-22T02:21:55.002Z,1.42
2018-11-22T02:22:54.987Z,1.54
2018-11-22T02:23:54.980Z,1.51
2018-11-22T02:24:54.972Z,1.60
2018-11-22T02:25:54.961Z,1.55
2018-11-22T02:26:54.958Z,1.58
2018-11-22T02:27:54.950Z,1.54
2018-11-22T02:28:54.938Z,1.55
2018-11-22T02:29:54.925Z,1.54
2018-11-22T02:31:01.507Z,1.61
2018-11-22T02:31:54.939Z,1.54
2018-11-22T02:32:54.915Z,1.51
2018-11-22T02:33:54.918Z,1.61
2018-11-22T02:34:54.894Z,1.47
2018-11-22T02:35:54.886Z,1.60
2018-11-22T02:36:54.871Z,1.61
2018-11-22T02:37:54.866Z,1.64
2018-11-22T02:38:54.856Z,1.64
2018-11-22T02:39:54.852Z,1.54
2018-11-22T02:40:54.854Z,1.52
2018-11-22T02:41:54.857Z,1.55
2018-11-22T02:42:54.823Z,1.52
2018-11-22T02:43:54.820Z,1.55
2018-11-22T02:44:54.814Z,1.51
2018-11-22T02:45:54.803Z,1.57
2018-11-22T02:46:54.789Z,1.58
2018-11-22T02:47:54.783Z,1.46
2018-11-22T02:48:54.774Z,1.47
2018-11-22T02:49:54.764Z,1.47
2018-11-22T02:50:54.757Z,1.55
2018-11-22T02:51:54.748Z,1.52
2018-11-22T02:52:54.742Z,1.54
2018-11-22T02:53:54.730Z,1.58
2018-11-22T02:54:54.727Z,1.51
2018-11-22T02:55:54.729Z,1.54
2018-11-22T02:56:54.706Z,1.57
2018-11-22T02:57:54.706Z,1.52
2018-11-22T02:58:54.693Z,1.55
2018-11-22T02:59:54.681Z,1.54
2018-11-22T03:00:54.705Z,1.58
2018-11-22T03:01:54.680Z,1.60
2018-11-22T03:02:54.662Z,1.60
2018-11-22T03:03:54.681Z,1.58
2018-11-22T03:04:54.643Z,1.55
2018-11-22T03:05:54.635Z,1.47
2018-11-22T03:06:54.625Z,1.50
2018-11-22T03:07:54.618Z,1.62
2018-11-22T03:08:54.608Z,1.47
2018-11-22T03:09:54.600Z,1.54
2018-11-22T03:10:54.593Z,1.60
2018-11-22T03:11:54.598Z,1.52
2018-11-22T03:12:54.577Z,1.60
2018-11-22T03:13:54.566Z,1.51
2018-11-22T03:14:54.565Z,1.57
2018-11-22T03:15:54.556Z,1.55
2018-11-22T03:16:54.549Z,1.51
2018-11-22T03:17:54.554Z,1.57
2018-11-22T03:18:54.546Z,1.51
2018-11-22T03:19:54.518Z,1.46
2018-11-22T03:20:54.508Z,1.61
2018-11-22T03:21:54.500Z,1.55
2018-11-22T03:22:54.512Z,1.61
2018-11-22T03:23:54.486Z,1.57
2018-11-22T03:24:54.475Z,1.54
2018-11-22T03:25:54.490Z,1.54
2018-11-22T03:26:54.460Z,1.54
2018-11-22T03:27:54.457Z,1.44
2018-11-22T03:28:54.444Z,1.57
2018-11-22T03:29:54.439Z,1.51
2018-11-22T03:30:54.427Z,1.50
2018-11-22T03:31:54.431Z,1.52
2018-11-22T03:32:54.412Z,1.54
2018-11-22T03:33:54.404Z,1.46
2018-11-22T03:34:54.401Z,1.61
2018-11-22T03:35:54.385Z,1.52
2018-11-22T03:36:54.382Z,1.54
2018-11-22T03:37:54.368Z,1.58
2018-11-22T03:38:54.383Z,1.51
2018-11-22T03:39:54.360Z,1.47
2018-11-22T03:40:54.345Z,1.51
2018-11-22T03:41:54.338Z,1.60
2018-11-22T03:42:54.331Z,1.51
2018-11-22T03:43:54.320Z,1.57
2018-11-22T03:44:54.310Z,1.55
2018-11-22T03:45:54.303Z,1.64
2018-11-22T03:46:54.299Z,1.55
2018-11-22T03:47:54.295Z,1.64
2018-11-22T03:48:54.278Z,1.61
2018-11-22T03:49:54.273Z,1.52
2018-11-22T03:50:54.276Z,1.55
2018-11-22T03:51:54.255Z,1.52
2018-11-22T03:52:54.246Z,1.60
2018-11-22T03:53:54.238Z,1.57
2018-11-22T03:54:54.227Z,1.46
2018-11-22T03:55:54.221Z,1.50
2018-11-22T03:56:54.212Z,1.46
2018-11-22T03:57:54.207Z,1.54
2018-11-22T03:58:54.198Z,1.47
2018-11-22T03:59:54.188Z,1.52
2018-11-22T04:00:54.178Z,1.54
2018-11-22T04:01:54.174Z,1.57
2018-11-22T04:02:54.166Z,1.60
2018-11-22T04:03:54.157Z,1.57
2018-11-22T04:04:54.147Z,1.51
2018-11-22T04:05:54.136Z,1.40
2018-11-22T04:06:54.128Z,1.46
2018-11-22T04:07:54.123Z,1.60
2018-11-22T04:08:54.125Z,1.55
2018-11-22T04:09:54.112Z,1.51
2018-11-22T04:10:54.096Z,1.58
2018-11-22T04:11:54.086Z,1.51
2018-11-22T04:12:54.083Z,1.55
2018-11-22T04:13:54.075Z,1.55
2018-11-22T04:14:54.066Z,1.54
2018-11-22T04:15:54.057Z,1.52
2018-11-22T04:16:54.044Z,1.54
2018-11-22T04:17:54.036Z,1.57
2018-11-22T04:18:54.032Z,1.52
2018-11-22T04:19:54.027Z,1.51
2018-11-22T04:20:54.011Z,1.51
2018-11-22T04:21:54.006Z,1.43
2018-11-22T04:22:54.009Z,1.47
2018-11-22T04:23:53.989Z,1.47
2018-11-22T04:24:53.977Z,1.50
2018-11-22T04:25:53.990Z,1.57
2018-11-22T04:26:53.960Z,1.52
2018-11-22T04:27:53.953Z,1.50
2018-11-22T04:28:53.943Z,1.58
2018-11-22T04:29:53.941Z,1.54
2018-11-22T04:30:53.927Z,1.60
2018-11-22T04:31:53.920Z,1.55
2018-11-22T04:32:53.911Z,1.58
2018-11-22T04:33:53.902Z,1.58
2018-11-22T04:34:53.892Z,1.52
2018-11-22T04:35:54.156Z,1.55
2018-11-22T04:36:53.877Z,1.57
2018-11-22T04:37:53.871Z,1.55
2018-11-22T04:38:53.872Z,1.52
2018-11-22T04:39:53.853Z,1.57
2018-11-22T04:40:53.842Z,1.55
2018-11-22T04:41:53.836Z,1.55
2018-11-22T04:42:53.830Z,1.57
2018-11-22T04:43:53.826Z,1.51
2018-11-22T04:44:53.813Z,1.52
2018-11-22T04:45:53.822Z,1.57
2018-11-22T04:46:53.798Z,1.60
2018-11-22T04:47:53.788Z,1.54
2018-11-22T04:48:53.775Z,1.46
2018-11-22T04:49:53.775Z,1.44
2018-11-22T04:50:53.760Z,1.55
2018-11-22T04:51:53.758Z,1.54
2018-11-22T04:52:53.743Z,1.62
2018-11-22T04:53:55.659Z,1.47
2018-11-22T04:54:53.727Z,1.55
2018-11-22T04:55:53.720Z,1.60
2018-11-22T04:56:53.714Z,1.54
2018-11-22T04:57:57.947Z,1.55
2018-11-22T04:58:53.694Z,1.57
2018-11-22T04:59:53.686Z,1.61
2018-11-22T05:00:53.695Z,1.54
2018-11-22T05:01:53.689Z,1.55
2018-11-22T05:02:53.664Z,1.55
2018-11-22T05:03:53.657Z,1.64
2018-11-22T05:04:53.643Z,1.58
2018-11-22T05:05:53.635Z,1.65
2018-11-22T05:06:53.626Z,1.55
2018-11-22T05:07:53.618Z,1.52
2018-11-22T05:08:53.611Z,1.55
2018-11-22T05:09:53.607Z,1.52
2018-11-22T05:10:53.596Z,1.61
2018-11-22T05:11:53.587Z,1.57
2018-11-22T05:12:54.456Z,1.62
2018-11-22T05:13:53.570Z,1.60
2018-11-22T05:14:53.561Z,1.54
2018-11-22T05:15:53.554Z,1.55
2018-11-22T05:16:53.546Z,1.57
2018-11-22T05:17:53.536Z,1.46
2018-11-22T05:18:53.530Z,1.55
2018-11-22T05:19:53.521Z,1.57
2018-11-22T05:20:53.512Z,1.51
2018-11-22T05:21:53.506Z,1.54
2018-11-22T05:22:53.494Z,1.58
2018-11-22T05:23:53.488Z,1.55
2018-11-22T05:24:53.477Z,1.61
2018-11-22T05:25:53.471Z,1.61
2018-11-22T05:26:53.462Z,1.54
2018-11-22T05:27:53.456Z,1.57
2018-11-22T05:28:53.446Z,1.64
2018-11-22T05:29:53.437Z,1.64
2018-11-22T05:30:53.428Z,1.65
2018-11-22T05:31:53.420Z,1.60
2018-11-22T05:32:53.414Z,1.52
2018-11-22T05:33:53.429Z,1.54
2018-11-22T05:34:53.397Z,1.55
2018-11-22T05:35:53.389Z,1.58
2018-11-22T05:36:53.383Z,1.57
2018-11-22T05:37:53.371Z,1.46
2018-11-22T05:38:53.362Z,1.58
2018-11-22T05:39:53.378Z,1.58
2018-11-22T05:40:53.352Z,1.52
2018-11-22T05:41:53.350Z,1.55
2018-11-22T05:42:54.312Z,1.51
2018-11-22T05:43:53.326Z,1.57
2018-11-22T05:44:53.314Z,1.55
2018-11-22T05:45:53.321Z,1.57
2018-11-22T05:46:53.301Z,1.47
2018-11-22T05:47:53.293Z,1.51
2018-11-22T05:48:53.283Z,1.58
2018-11-22T05:49:53.274Z,1.57
2018-11-22T05:50:53.287Z,1.57
2018-11-22T05:51:53.259Z,1.52
2018-11-22T05:52:53.247Z,1.51
2018-11-22T05:54:00.768Z,1.55
2018-11-22T05:56:08.450Z,1.62
2018-11-22T05:57:15.044Z,1.58
2018-11-22T05:59:02.896Z,1.57
2018-11-22T06:00:01.757Z,1.58
2018-11-22T06:02:02.786Z,1.55
2018-11-22T06:04:43.072Z,1.37
2018-11-22T06:06:58.164Z,1.46
2018-11-22T06:07:57.688Z,1.52
2018-11-22T06:09:50.028Z,1.50
2018-11-22T06:10:49.887Z,1.44
2018-11-22T06:12:43.325Z,1.44
2018-11-22T06:13:43.152Z,1.44
2018-11-22T06:15:36.244Z,1.44
2018-11-22T06:16:36.211Z,1.46
2018-11-22T06:18:29.702Z,1.55
2018-11-22T06:19:29.455Z,1.44
2018-11-22T06:21:22.443Z,1.57
2018-11-22T06:22:22.175Z,1.55
2018-11-22T06:24:16.522Z,1.55
2018-11-22T06:25:16.332Z,1.55
2018-11-22T06:26:16.272Z,1.68
2018-11-22T06:27:16.371Z,1.64
2018-11-22T06:28:16.132Z,1.68
2018-11-22T06:29:16.103Z,1.68
2018-11-22T06:30:16.094Z,1.68
2018-11-22T06:31:16.084Z,1.72
2018-11-22T06:32:16.078Z,1.72
2018-11-22T06:33:16.067Z,1.64
2018-11-22T06:34:16.061Z,1.68
2018-11-22T06:35:16.051Z,1.73
2018-11-22T06:36:16.043Z,1.75
2018-11-22T06:37:16.034Z,1.76
2018-11-22T06:38:16.025Z,1.64
2018-11-22T06:39:16.061Z,1.69
2018-11-22T06:40:16.012Z,1.82
2018-11-22T06:41:16.001Z,1.83
2018-11-22T06:42:15.996Z,1.79
2018-11-22T06:43:15.989Z,1.75
2018-11-22T06:44:15.976Z,1.76
2018-11-22T06:45:15.995Z,1.76
2018-11-22T06:46:15.961Z,1.87
2018-11-22T06:47:15.960Z,1.75
2018-11-22T06:48:15.944Z,1.79
2018-11-22T06:49:15.937Z,1.72
2018-11-22T06:50:15.928Z,1.64
2018-11-22T06:51:15.925Z,1.71
2018-11-22T06:52:15.909Z,1.72
2018-11-22T06:53:15.915Z,1.75
2018-11-22T06:54:15.897Z,1.71
2018-11-22T06:55:15.892Z,1.71
2018-11-22T06:56:15.895Z,1.65
2018-11-22T06:57:15.908Z,1.69
2018-11-22T06:58:15.865Z,1.61
2018-11-22T06:59:15.854Z,1.78
2018-11-22T07:00:15.848Z,1.62
2018-11-22T07:01:15.855Z,1.73
2018-11-22T07:02:15.829Z,1.72
2018-11-22T07:03:15.819Z,1.68
2018-11-22T07:04:15.813Z,1.72
2018-11-22T07:05:15.822Z,1.68
2018-11-22T07:06:15.825Z,1.68
2018-11-22T07:07:15.791Z,1.60
2018-11-22T07:08:15.804Z,1.69
2018-11-22T07:09:15.776Z,1.65
2018-11-22T07:10:15.765Z,1.69
2018-11-22T07:11:15.766Z,1.65
2018-11-22T07:12:15.745Z,1.61
2018-11-22T07:13:15.737Z,1.71
2018-11-22T07:14:15.737Z,1.72
2018-11-22T07:15:15.748Z,1.72
2018-11-22T07:16:15.710Z,1.68
2018-11-22T07:17:15.703Z,1.65
2018-11-22T07:18:15.697Z,1.62
2018-11-22T07:19:15.690Z,1.61
2018-11-22T07:20:15.677Z,1.55
2018-11-22T07:21:15.668Z,1.71
2018-11-22T07:22:18.908Z,1.58
2018-11-22T07:23:15.655Z,1.55
2018-11-22T07:24:16.102Z,1.68
2018-11-22T07:25:15.643Z,1.64
2018-11-22T07:26:15.630Z,1.54
2018-11-22T07:27:15.624Z,1.52
2018-11-22T07:28:15.612Z,1.68
2018-11-22T07:29:15.604Z,1.65
2018-11-22T07:30:15.636Z,1.68
2018-11-22T07:31:15.588Z,1.65
2018-11-22T07:32:15.577Z,1.64
2018-11-22T07:33:15.569Z,1.68
2018-11-22T07:34:15.560Z,1.64
2018-11-22T07:35:15.552Z,1.68
2018-11-22T07:36:15.545Z,1.69
2018-11-22T07:37:15.538Z,1.64
2018-11-22T07:38:15.527Z,1.62
2018-11-22T07:39:15.520Z,1.55
2018-11-22T07:40:15.512Z,1.68
2018-11-22T07:41:15.503Z,1.55
2018-11-22T07:42:15.494Z,1.51
2018-11-22T07:43:15.486Z,1.68
2018-11-22T07:44:15.476Z,1.69
2018-11-22T07:45:15.470Z,1.64
2018-11-22T07:46:15.459Z,1.71
2018-11-22T07:47:15.454Z,1.65
2018-11-22T07:48:15.445Z,1.68
2018-11-22T07:49:15.435Z,1.68
2018-11-22T07:50:15.426Z,1.65
2018-11-22T07:51:15.422Z,1.69
2018-11-22T07:52:15.409Z,1.75
2018-11-22T07:53:15.402Z,1.79
2018-11-22T07:54:15.399Z,1.76
2018-11-22T07:55:15.387Z,1.75
2018-11-22T07:56:15.378Z,1.80
2018-11-22T07:57:15.368Z,1.79
2018-11-22T07:58:15.358Z,1.82
2018-11-22T07:59:15.353Z,1.80
2018-11-22T08:00:15.349Z,1.65
2018-11-22T08:01:15.337Z,1.78
2018-11-22T08:02:15.329Z,1.73
2018-11-22T08:03:15.319Z,1.79
2018-11-22T08:04:15.311Z,1.83
2018-11-22T08:05:15.317Z,1.82
2018-11-22T08:06:15.298Z,1.89
2018-11-22T08:07:15.285Z,1.87
2018-11-22T08:08:15.282Z,1.87
2018-11-22T08:09:15.272Z,1.90
2018-11-22T08:10:15.262Z,1.89
2018-11-22T08:11:15.253Z,1.89
2018-11-22T08:12:15.247Z,1.87
2018-11-22T08:13:15.239Z,1.89
2018-11-22T08:14:15.246Z,1.78
2018-11-22T08:15:15.244Z,1.89
2018-11-22T08:16:15.215Z,1.89
2018-11-22T08:17:15.208Z,1.76
2018-11-22T08:18:15.206Z,1.76
2018-11-22T08:19:15.191Z,1.78
2018-11-22T08:20:15.182Z,1.82
2018-11-22T08:21:15.173Z,1.72
2018-11-22T08:22:15.167Z,1.73
2018-11-22T08:23:15.158Z,1.73
2018-11-22T08:24:15.149Z,1.78
2018-11-22T08:25:15.159Z,1.73
2018-11-22T08:26:15.134Z,1.78
2018-11-22T08:27:15.125Z,1.69
2018-11-22T08:28:15.118Z,1.65
2018-11-22T08:29:15.110Z,1.78
2018-11-22T08:30:15.100Z,1.75
2018-11-22T08:31:15.094Z,1.79
2018-11-22T08:32:15.085Z,1.78
2018-11-22T08:33:15.079Z,1.80
2018-11-22T08:34:15.069Z,1.78
2018-11-22T08:35:15.063Z,1.78
2018-11-22T08:36:15.057Z,1.75
2018-11-22T08:37:15.044Z,1.87
2018-11-22T08:38:22.891Z,1.89
2018-11-22T08:40:08.991Z,1.79
2018-11-22T08:41:08.696Z,1.89
2018-11-22T08:43:02.030Z,1.93
2018-11-22T08:44:01.899Z,1.90
2018-11-22T08:45:55.350Z,1.82
2018-11-22T08:46:55.294Z,1.85
2018-11-22T08:48:48.647Z,1.87
2018-11-22T08:49:48.628Z,1.78
2018-11-22T08:51:42.017Z,1.79
2018-11-22T08:52:41.977Z,1.82
2018-11-22T08:53:41.973Z,1.85
2018-11-22T08:54:41.960Z,1.89
2018-11-22T08:55:41.951Z,1.82
2018-11-22T08:56:41.943Z,1.87
2018-11-22T08:57:41.955Z,1.89
2018-11-22T08:58:41.931Z,1.87
2018-11-22T08:59:41.971Z,1.90
2018-11-22T09:00:41.911Z,1.85
2018-11-22T09:01:41.906Z,1.85
2018-11-22T09:02:45.378Z,1.90
2018-11-22T09:03:41.884Z,1.89
2018-11-22T09:04:41.877Z,1.91
2018-11-22T09:05:41.870Z,1.78
2018-11-22T09:06:41.858Z,1.87
2018-11-22T09:07:41.859Z,1.87
2018-11-22T09:08:49.356Z,1.87
2018-11-22T09:09:42.265Z,2.02
2018-11-22T09:10:43.627Z,2.02
2018-11-22T09:11:41.898Z,2.04
2018-11-22T09:12:41.900Z,2.02
2018-11-22T09:13:41.825Z,1.89
2018-11-22T09:14:41.796Z,1.85
2018-11-22T09:15:41.801Z,1.93
2018-11-22T09:16:41.791Z,1.89
2018-11-22T09:17:41.772Z,1.98
2018-11-22T09:18:41.773Z,2.01
2018-11-22T09:19:41.756Z,2.04
2018-11-22T09:20:41.806Z,2.08
2018-11-22T09:21:41.739Z,1.99
2018-11-22T09:22:41.736Z,1.98
2018-11-22T09:23:41.737Z,1.91
2018-11-22T09:24:41.715Z,1.87
2018-11-22T09:25:41.718Z,2.04
2018-11-22T09:26:41.700Z,2.08
2018-11-22T09:27:41.692Z,2.02
2018-11-22T09:28:41.683Z,2.06
2018-11-22T09:29:41.713Z,2.04
2018-11-22T09:30:41.669Z,2.04
2018-11-22T09:31:41.660Z,1.99
2018-11-22T09:32:41.651Z,2.08
2018-11-22T09:33:41.643Z,2.04
2018-11-22T09:34:41.644Z,2.08
2018-11-22T09:35:41.624Z,2.06
2018-11-22T09:36:41.625Z,2.09
2018-11-22T09:37:41.610Z,2.09
2018-11-22T09:38:41.604Z,2.08
2018-11-22T09:39:41.592Z,2.10
2018-11-22T09:40:41.614Z,2.09
2018-11-22T09:41:41.583Z,2.08
2018-11-22T09:42:41.569Z,2.06
2018-11-22T09:43:41.560Z,2.06
2018-11-22T09:44:41.554Z,2.08
2018-11-22T09:45:41.547Z,2.01
2018-11-22T09:46:41.537Z,2.12
2018-11-22T09:47:41.539Z,2.10
2018-11-22T09:48:41.591Z,2.15
2018-11-22T09:49:41.515Z,2.13
2018-11-22T09:50:41.517Z,2.15
2018-11-22T09:51:41.500Z,2.16
2018-11-22T09:52:41.495Z,2.19
2018-11-22T09:53:41.484Z,2.15
2018-11-22T09:54:41.476Z,2.15
2018-11-22T09:55:41.468Z,2.16
2018-11-22T09:56:41.457Z,2.04
2018-11-22T09:57:41.452Z,2.10
2018-11-22T09:58:41.447Z,2.15
2018-11-22T09:59:41.439Z,2.16
2018-11-22T10:00:41.428Z,2.17
2018-11-22T10:01:41.421Z,2.22
2018-11-22T10:02:41.416Z,2.31
2018-11-22T10:03:41.407Z,2.33
2018-11-22T10:04:41.475Z,2.35
2018-11-22T10:05:41.461Z,2.34
2018-11-22T10:06:41.391Z,2.34
2018-11-22T10:07:41.377Z,2.23
2018-11-22T10:08:41.394Z,2.26
2018-11-22T10:09:42.057Z,2.31
2018-11-22T10:10:41.352Z,2.34
2018-11-22T10:11:41.345Z,2.31
2018-11-22T10:12:41.396Z,2.35
2018-11-22T10:13:41.332Z,2.38
2018-11-22T10:14:41.321Z,2.33
2018-11-22T10:15:41.337Z,2.28
2018-11-22T10:16:41.308Z,2.22
2018-11-22T10:17:41.297Z,2.27
2018-11-22T10:18:41.402Z,2.22
2018-11-22T10:19:41.279Z,2.19
2018-11-22T10:20:41.277Z,2.27
2018-11-22T10:21:41.268Z,2.37
2018-11-22T10:22:41.338Z,2.33
2018-11-22T10:23:41.266Z,2.31
2018-11-22T10:24:41.244Z,2.30
2018-11-22T10:25:41.237Z,2.34
2018-11-22T10:26:41.248Z,2.34
2018-11-22T10:27:41.223Z,2.40
2018-11-22T10:28:41.213Z,2.33
2018-11-22T10:29:41.209Z,2.35
2018-11-22T10:30:41.223Z,2.34
2018-11-22T10:31:41.255Z,2.19
2018-11-22T10:32:41.187Z,2.20
2018-11-22T10:33:41.178Z,2.37
2018-11-22T10:34:41.170Z,2.34
2018-11-22T10:35:41.162Z,2.34
2018-11-22T10:36:41.162Z,2.34
2018-11-22T10:37:48.545Z,2.38
2018-11-22T10:39:34.135Z,2.46
2018-11-22T10:40:34.011Z,2.44
2018-11-22T10:42:27.009Z,2.45
2018-11-22T10:43:27.054Z,2.31
2018-11-22T10:44:26.890Z,2.35
2018-11-22T10:45:26.927Z,2.33
2018-11-22T10:46:26.846Z,2.35
2018-11-22T10:47:26.830Z,2.38
2018-11-22T10:48:26.821Z,2.46
2018-11-22T10:49:26.828Z,2.31
2018-11-22T10:50:26.824Z,2.34
2018-11-22T10:51:26.801Z,2.33
2018-11-22T10:52:26.790Z,2.35
2018-11-22T10:53:26.785Z,2.28
2018-11-22T10:54:26.807Z,2.45
2018-11-22T10:55:26.828Z,2.49
2018-11-22T10:56:26.768Z,2.48
2018-11-22T10:57:26.758Z,2.52
2018-11-22T10:58:26.748Z,2.51
2018-11-22T10:59:26.737Z,2.53
2018-11-22T11:00:26.733Z,2.51
2018-11-22T11:01:26.722Z,2.48
2018-11-22T11:02:26.716Z,2.53
2018-11-22T11:03:26.722Z,2.56
2018-11-22T11:04:26.701Z,2.56
2018-11-22T11:05:26.698Z,2.56
2018-11-22T11:06:26.686Z,2.56
2018-11-22T11:07:28.419Z,2.59
2018-11-22T11:08:26.671Z,2.52
2018-11-22T11:09:26.672Z,2.56
2018-11-22T11:10:26.656Z,2.61
2018-11-22T11:11:26.650Z,2.59
2018-11-22T11:12:26.649Z,2.56
2018-11-22T11:13:26.635Z,2.58
2018-11-22T11:14:26.626Z,2.61
2018-11-22T11:15:26.620Z,2.66
2018-11-22T11:16:26.611Z,2.71
2018-11-22T11:17:26.604Z,2.69
2018-11-22T11:18:26.605Z,2.64
2018-11-22T11:19:26.592Z,2.64
2018-11-22T11:20:26.583Z,2.64
2018-11-22T11:21:26.578Z,2.64
2018-11-22T11:22:26.590Z,2.64
2018-11-22T11:23:26.560Z,2.61
2018-11-22T11:24:26.830Z,2.61
2018-11-22T11:25:26.545Z,2.64
2018-11-22T11:26:26.538Z,2.64
2018-11-22T11:27:26.535Z,2.69
2018-11-22T11:28:26.526Z,2.61
2018-11-22T11:29:26.518Z,2.63
2018-11-22T11:30:26.512Z,2.58
2018-11-22T11:31:26.502Z,2.67
2018-11-22T11:32:26.514Z,2.58
2018-11-22T11:33:26.495Z,2.53
2018-11-22T11:34:26.480Z,2.51
2018-11-22T11:35:26.474Z,2.46
2018-11-22T11:36:26.486Z,2.49
2018-11-22T11:37:26.459Z,2.53
2018-11-22T11:38:26.453Z,2.58
2018-11-22T11:39:26.462Z,2.61
2018-11-22T11:40:26.441Z,2.58
2018-11-22T11:41:26.429Z,2.53
2018-11-22T11:42:26.427Z,2.59
2018-11-22T11:43:26.418Z,2.58
2018-11-22T11:44:26.408Z,2.52
2018-11-22T11:45:26.399Z,2.53
2018-11-22T11:46:26.393Z,2.53
2018-11-22T11:47:26.407Z,2.51
2018-11-22T11:48:26.378Z,2.58
2018-11-22T11:49:26.373Z,2.48
2018-11-22T11:50:26.366Z,2.55
2018-11-22T11:51:26.362Z,2.55
2018-11-22T11:52:26.352Z,2.48
2018-11-22T11:53:41.007Z,2.53
2018-11-22T11:54:26.347Z,2.56
2018-11-22T11:55:26.329Z,2.58
2018-11-22T11:56:26.319Z,2.52
2018-11-22T11:57:26.316Z,2.51
2018-11-22T11:58:26.308Z,2.49
2018-11-22T11:59:26.300Z,2.51
2018-11-22T12:00:26.291Z,2.53
2018-11-22T12:01:26.281Z,2.61
2018-11-22T12:02:26.275Z,2.61
2018-11-22T12:03:26.277Z,2.58
2018-11-22T12:04:26.262Z,2.63
2018-11-22T12:05:26.273Z,2.61
2018-11-22T12:06:26.247Z,2.61
2018-11-22T12:07:26.238Z,2.66
2018-11-22T12:08:26.233Z,2.59
2018-11-22T12:09:26.230Z,2.67
2018-11-22T12:10:26.219Z,2.64
2018-11-22T12:11:26.209Z,2.71
2018-11-22T12:12:26.209Z,2.70
2018-11-22T12:13:26.193Z,2.70
2018-11-22T12:14:26.201Z,2.70
2018-11-22T12:15:26.181Z,2.59
2018-11-22T12:16:27.929Z,2.55
2018-11-22T12:17:26.190Z,2.55
2018-11-22T12:18:26.159Z,2.59
2018-11-22T12:19:26.154Z,2.59
2018-11-22T12:20:34.049Z,2.64
2018-11-22T12:22:20.333Z,2.64
2018-11-22T12:23:19.602Z,2.76
2018-11-22T12:24:19.591Z,2.67
2018-11-22T12:25:19.710Z,2.74
2018-11-22T12:26:19.551Z,2.67
2018-11-22T12:27:19.552Z,2.73
2018-11-22T12:28:19.548Z,2.73
2018-11-22T12:29:19.535Z,2.69
2018-11-22T12:30:19.528Z,2.82
2018-11-22T12:31:19.521Z,2.74
2018-11-22T12:32:19.554Z,2.71
2018-11-22T12:33:19.553Z,2.76
2018-11-22T12:34:20.301Z,2.76
2018-11-22T12:35:27.371Z,2.70
2018-11-22T12:37:12.752Z,2.69
2018-11-22T12:38:12.722Z,2.63
2018-11-22T12:40:06.156Z,2.69
2018-11-22T12:41:06.134Z,2.71
2018-11-22T12:42:59.079Z,2.73
2018-11-22T12:43:59.031Z,2.67
2018-11-22T12:45:52.927Z,2.81
2018-11-22T12:46:52.944Z,2.79
2018-11-22T12:49:07.321Z,2.77
2018-11-22T12:49:46.279Z,2.76
2018-11-22T12:51:39.688Z,2.66
2018-11-22T12:52:39.663Z,2.59
2018-11-22T12:54:33.140Z,2.64
2018-11-22T12:55:33.095Z,2.49
2018-11-22T12:57:26.550Z,2.48
2018-11-22T12:58:26.500Z,2.53
2018-11-22T13:00:23.167Z,2.64
2018-11-22T13:01:19.866Z,2.61
2018-11-22T13:03:12.789Z,2.59
2018-11-22T13:04:12.813Z,2.58
2018-11-22T13:06:06.164Z,2.63
2018-11-22T13:07:06.089Z,2.61
2018-11-22T13:08:58.998Z,2.63
2018-11-22T13:09:59.017Z,2.76
2018-11-22T13:11:51.904Z,2.76
2018-11-22T13:12:51.833Z,2.73
2018-11-22T13:14:45.263Z,2.73
2018-11-22T13:15:45.283Z,2.67
2018-11-22T13:17:38.872Z,2.74
2018-11-22T13:18:38.794Z,2.73
2018-11-22T13:20:32.100Z,2.67
2018-11-22T13:21:33.317Z,2.63
2018-11-22T13:23:24.779Z,2.63
2018-11-22T13:24:24.924Z,2.61
2018-11-22T13:26:18.248Z,2.55
2018-11-22T13:27:18.464Z,2.55
2018-11-22T13:29:11.709Z,2.63
2018-11-22T13:30:11.739Z,2.58
2018-11-22T13:32:04.700Z,2.56
2018-11-22T13:33:04.772Z,2.40
2018-11-22T13:34:57.611Z,2.41
2018-11-22T13:35:57.357Z,2.35
2018-11-22T13:37:51.080Z,2.35
2018-11-22T13:38:50.369Z,2.31
2018-11-22T13:40:43.786Z,2.45
2018-11-22T13:41:43.652Z,2.38
2018-11-22T13:43:37.120Z,2.46
2018-11-22T13:44:37.455Z,2.48
2018-11-22T13:46:30.127Z,2.48
2018-11-22T13:47:30.043Z,2.53
2018-11-22T13:49:24.059Z,2.53
2018-11-22T13:50:23.517Z,2.48
2018-11-22T13:52:17.081Z,2.38
2018-11-22T13:53:20.417Z,2.41
2018-11-22T13:55:09.810Z,2.44
2018-11-22T13:56:09.750Z,2.44
2018-11-22T13:58:02.695Z,2.45
2018-11-22T13:59:02.570Z,2.44
2018-11-22T14:00:55.615Z,2.35
2018-11-22T14:01:55.415Z,2.38
2018-11-22T14:03:48.399Z,2.44
2018-11-22T14:04:48.354Z,2.40